sensor_id;sensor_type;location;lat;lon;timestamp;temperature;humidity
18541;DHT22;9400;50.924;5.328;2023-04-30T00:01:26;11.60;99.90
18541;DHT22;9400;50.924;5.328;2023-04-30T00:03:53;11.50;99.90
18541;DHT22;9400;50.924;5.328;2023-04-30T00:06:20;11.40;99.90
18541;DHT22;9400;50.924;5.328;2023-04-30T00:08:48;11.30;99.90
18541;DHT22;9400;50.924;5.328;2023-04-30T00:11:15;11.20;99.90
18541;DHT22;9400;50.924;5.328;2023-04-30T00:13:45;11.20;99.90
18541;DHT22;9400;50.924;5.328;2023-04-30T00:16:12;11.20;99.90
18541;DHT22;9400;50.924;5.328;2023-04-30T00:18:39;11.10;99.90
18541;DHT22;9400;50.924;5.328;2023-04-30T00:21:07;11.10;99.90
18541;DHT22;9400;50.924;5.328;2023-04-30T00:23:34;11.10;99.90
18541;DHT22;9400;50.924;5.328;2023-04-30T00:26:04;11.00;99.90
18541;DHT22;9400;50.924;5.328;2023-04-30T00:28:33;11.00;99.90
18541;DHT22;9400;50.924;5.328;2023-04-30T00:31:02;10.90;99.90
18541;DHT22;9400;50.924;5.328;2023-04-30T00:33:32;10.90;99.90
18541;DHT22;9400;50.924;5.328;2023-04-30T00:35:59;10.80;99.90
18541;DHT22;9400;50.924;5.328;2023-04-30T00:38:27;10.70;99.90
18541;DHT22;9400;50.924;5.328;2023-04-30T00:40:55;10.80;99.90
18541;DHT22;9400;50.924;5.328;2023-04-30T00:43:23;10.80;99.90
18541;DHT22;9400;50.924;5.328;2023-04-30T00:45:51;10.70;99.90
18541;DHT22;9400;50.924;5.328;2023-04-30T00:48:20;10.70;99.90
18541;DHT22;9400;50.924;5.328;2023-04-30T00:50:47;10.80;99.90
18541;DHT22;9400;50.924;5.328;2023-04-30T00:53:16;10.70;99.90
18541;DHT22;9400;50.924;5.328;2023-04-30T00:55:43;10.60;99.90
18541;DHT22;9400;50.924;5.328;2023-04-30T00:58:11;10.60;99.90
18541;DHT22;9400;50.924;5.328;2023-04-30T01:00:39;10.60;99.90
18541;DHT22;9400;50.924;5.328;2023-04-30T01:03:12;10.60;99.90
18541;DHT22;9400;50.924;5.328;2023-04-30T01:05:44;10.60;99.90
18541;DHT22;9400;50.924;5.328;2023-04-30T01:08:15;10.50;99.90
18541;DHT22;9400;50.924;5.328;2023-04-30T01:10:47;10.40;99.90
18541;DHT22;9400;50.924;5.328;2023-04-30T01:13:25;10.40;99.90
18541;DHT22;9400;50.924;5.328;2023-04-30T01:15:59;10.30;99.90
18541;DHT22;9400;50.924;5.328;2023-04-30T01:18:34;10.40;99.90
18541;DHT22;9400;50.924;5.328;2023-04-30T01:21:07;10.40;99.90
18541;DHT22;9400;50.924;5.328;2023-04-30T01:23:58;10.40;99.90
18541;DHT22;9400;50.924;5.328;2023-04-30T01:26:46;10.30;99.90
18541;DHT22;9400;50.924;5.328;2023-04-30T01:29:18;10.30;99.90
18541;DHT22;9400;50.924;5.328;2023-04-30T01:31:46;10.30;99.90
18541;DHT22;9400;50.924;5.328;2023-04-30T01:34:13;10.30;99.90
18541;DHT22;9400;50.924;5.328;2023-04-30T01:36:55;10.30;99.90
18541;DHT22;9400;50.924;5.328;2023-04-30T01:39:37;10.30;99.90
18541;DHT22;9400;50.924;5.328;2023-04-30T01:42:11;10.30;99.90
18541;DHT22;9400;50.924;5.328;2023-04-30T01:44:53;10.20;99.90
18541;DHT22;9400;50.924;5.328;2023-04-30T01:47:31;10.20;99.90
18541;DHT22;9400;50.924;5.328;2023-04-30T01:50:08;10.30;99.90
18541;DHT22;9400;50.924;5.328;2023-04-30T01:52:41;10.30;99.90
18541;DHT22;9400;50.924;5.328;2023-04-30T01:55:13;10.20;99.90
18541;DHT22;9400;50.924;5.328;2023-04-30T01:57:51;10.10;99.90
18541;DHT22;9400;50.924;5.328;2023-04-30T02:00:24;10.10;99.90
18541;DHT22;9400;50.924;5.328;2023-04-30T02:02:52;10.00;99.90
18541;DHT22;9400;50.924;5.328;2023-04-30T02:05:20;10.10;99.90
18541;DHT22;9400;50.924;5.328;2023-04-30T02:07:48;10.00;99.90
18541;DHT22;9400;50.924;5.328;2023-04-30T02:10:20;10.00;99.90
18541;DHT22;9400;50.924;5.328;2023-04-30T02:12:48;10.00;99.90
18541;DHT22;9400;50.924;5.328;2023-04-30T02:15:16;9.90;99.90
18541;DHT22;9400;50.924;5.328;2023-04-30T02:17:45;9.90;99.90
18541;DHT22;9400;50.924;5.328;2023-04-30T02:20:13;9.90;99.90
18541;DHT22;9400;50.924;5.328;2023-04-30T02:22:41;9.90;99.90
18541;DHT22;9400;50.924;5.328;2023-04-30T02:25:09;9.80;99.90
18541;DHT22;9400;50.924;5.328;2023-04-30T02:27:37;9.80;99.90
18541;DHT22;9400;50.924;5.328;2023-04-30T02:30:06;9.80;99.90
18541;DHT22;9400;50.924;5.328;2023-04-30T02:32:34;9.80;99.90
18541;DHT22;9400;50.924;5.328;2023-04-30T02:35:03;9.70;99.90
18541;DHT22;9400;50.924;5.328;2023-04-30T02:37:31;9.70;99.90
18541;DHT22;9400;50.924;5.328;2023-04-30T02:39:59;9.70;99.90
18541;DHT22;9400;50.924;5.328;2023-04-30T02:42:26;9.60;99.90
18541;DHT22;9400;50.924;5.328;2023-04-30T02:44:53;9.60;99.90
18541;DHT22;9400;50.924;5.328;2023-04-30T02:47:21;9.50;99.90
18541;DHT22;9400;50.924;5.328;2023-04-30T02:49:48;9.50;99.90
18541;DHT22;9400;50.924;5.328;2023-04-30T02:52:17;9.50;99.90
18541;DHT22;9400;50.924;5.328;2023-04-30T02:54:45;9.40;99.90
18541;DHT22;9400;50.924;5.328;2023-04-30T02:57:12;9.40;99.90
18541;DHT22;9400;50.924;5.328;2023-04-30T02:59:40;9.30;99.90
18541;DHT22;9400;50.924;5.328;2023-04-30T03:02:10;9.30;99.90
18541;DHT22;9400;50.924;5.328;2023-04-30T03:04:38;9.30;99.90
18541;DHT22;9400;50.924;5.328;2023-04-30T03:07:06;9.30;99.90
18541;DHT22;9400;50.924;5.328;2023-04-30T03:09:35;9.30;99.90
18541;DHT22;9400;50.924;5.328;2023-04-30T03:12:03;9.30;99.90
18541;DHT22;9400;50.924;5.328;2023-04-30T03:14:31;9.30;99.90
18541;DHT22;9400;50.924;5.328;2023-04-30T03:16:59;9.30;99.90
18541;DHT22;9400;50.924;5.328;2023-04-30T03:19:27;9.20;99.90
18541;DHT22;9400;50.924;5.328;2023-04-30T03:21:55;9.30;99.90
18541;DHT22;9400;50.924;5.328;2023-04-30T03:24:22;9.20;99.90
18541;DHT22;9400;50.924;5.328;2023-04-30T03:26:52;9.20;99.90
18541;DHT22;9400;50.924;5.328;2023-04-30T03:29:20;9.20;99.90
18541;DHT22;9400;50.924;5.328;2023-04-30T03:31:49;9.20;99.90
18541;DHT22;9400;50.924;5.328;2023-04-30T03:34:17;9.20;99.90
18541;DHT22;9400;50.924;5.328;2023-04-30T03:36:44;9.10;99.90
18541;DHT22;9400;50.924;5.328;2023-04-30T03:39:15;9.10;99.90
18541;DHT22;9400;50.924;5.328;2023-04-30T03:41:42;9.10;99.90
18541;DHT22;9400;50.924;5.328;2023-04-30T03:44:12;9.00;99.90
18541;DHT22;9400;50.924;5.328;2023-04-30T03:46:40;9.10;99.90
18541;DHT22;9400;50.924;5.328;2023-04-30T03:49:08;9.00;99.90
18541;DHT22;9400;50.924;5.328;2023-04-30T03:51:36;9.00;99.90
18541;DHT22;9400;50.924;5.328;2023-04-30T03:54:07;8.90;99.90
18541;DHT22;9400;50.924;5.328;2023-04-30T03:56:35;8.90;99.90
18541;DHT22;9400;50.924;5.328;2023-04-30T03:59:04;8.90;99.90
18541;DHT22;9400;50.924;5.328;2023-04-30T04:01:33;8.80;99.90
18541;DHT22;9400;50.924;5.328;2023-04-30T04:04:01;8.90;99.90
18541;DHT22;9400;50.924;5.328;2023-04-30T04:06:28;8.90;99.90
18541;DHT22;9400;50.924;5.328;2023-04-30T04:08:57;8.90;99.90
18541;DHT22;9400;50.924;5.328;2023-04-30T04:11:24;8.90;99.90
18541;DHT22;9400;50.924;5.328;2023-04-30T04:13:52;8.80;99.90
18541;DHT22;9400;50.924;5.328;2023-04-30T04:16:20;8.80;99.90
18541;DHT22;9400;50.924;5.328;2023-04-30T04:18:50;8.70;99.90
18541;DHT22;9400;50.924;5.328;2023-04-30T04:21:19;8.80;99.90
18541;DHT22;9400;50.924;5.328;2023-04-30T04:23:47;8.80;99.90
18541;DHT22;9400;50.924;5.328;2023-04-30T04:26:14;8.70;99.90
18541;DHT22;9400;50.924;5.328;2023-04-30T04:28:44;8.70;99.90
18541;DHT22;9400;50.924;5.328;2023-04-30T04:31:12;8.70;99.90
18541;DHT22;9400;50.924;5.328;2023-04-30T04:33:40;8.80;99.90
18541;DHT22;9400;50.924;5.328;2023-04-30T04:36:09;8.80;99.90
18541;DHT22;9400;50.924;5.328;2023-04-30T04:38:37;8.80;99.90
18541;DHT22;9400;50.924;5.328;2023-04-30T04:41:04;8.80;99.90
18541;DHT22;9400;50.924;5.328;2023-04-30T04:43:32;8.80;99.90
18541;DHT22;9400;50.924;5.328;2023-04-30T04:45:59;8.90;99.90
18541;DHT22;9400;50.924;5.328;2023-04-30T04:48:27;8.80;99.90
18541;DHT22;9400;50.924;5.328;2023-04-30T04:50:55;8.80;99.90
18541;DHT22;9400;50.924;5.328;2023-04-30T04:53:25;8.80;99.90
18541;DHT22;9400;50.924;5.328;2023-04-30T04:55:52;8.90;99.90
18541;DHT22;9400;50.924;5.328;2023-04-30T04:58:20;8.90;99.90
18541;DHT22;9400;50.924;5.328;2023-04-30T05:00:48;8.90;99.90
18541;DHT22;9400;50.924;5.328;2023-04-30T05:03:15;8.80;99.90
18541;DHT22;9400;50.924;5.328;2023-04-30T05:05:43;8.90;99.90
18541;DHT22;9400;50.924;5.328;2023-04-30T05:08:10;9.00;99.90
18541;DHT22;9400;50.924;5.328;2023-04-30T05:10:39;8.90;99.90
18541;DHT22;9400;50.924;5.328;2023-04-30T05:13:07;9.00;99.90
18541;DHT22;9400;50.924;5.328;2023-04-30T05:15:35;9.10;99.90
18541;DHT22;9400;50.924;5.328;2023-04-30T05:18:03;9.10;99.90
18541;DHT22;9400;50.924;5.328;2023-04-30T05:20:30;9.10;99.90
18541;DHT22;9400;50.924;5.328;2023-04-30T05:22:58;9.10;99.90
18541;DHT22;9400;50.924;5.328;2023-04-30T05:25:25;9.20;99.90
18541;DHT22;9400;50.924;5.328;2023-04-30T05:27:54;9.20;99.90
18541;DHT22;9400;50.924;5.328;2023-04-30T05:30:22;9.20;99.90
18541;DHT22;9400;50.924;5.328;2023-04-30T05:32:50;9.20;99.90
18541;DHT22;9400;50.924;5.328;2023-04-30T05:35:18;9.20;99.90
18541;DHT22;9400;50.924;5.328;2023-04-30T05:37:45;9.30;99.90
18541;DHT22;9400;50.924;5.328;2023-04-30T05:40:13;9.30;99.90
18541;DHT22;9400;50.924;5.328;2023-04-30T05:42:41;9.40;99.90
18541;DHT22;9400;50.924;5.328;2023-04-30T05:45:11;9.40;99.90
18541;DHT22;9400;50.924;5.328;2023-04-30T05:47:40;9.50;99.90
18541;DHT22;9400;50.924;5.328;2023-04-30T05:50:09;9.50;99.90
18541;DHT22;9400;50.924;5.328;2023-04-30T05:52:36;9.60;99.90
18541;DHT22;9400;50.924;5.328;2023-04-30T05:55:04;9.80;99.90
18541;DHT22;9400;50.924;5.328;2023-04-30T05:57:32;9.80;99.90
18541;DHT22;9400;50.924;5.328;2023-04-30T06:00:00;9.80;99.90
18541;DHT22;9400;50.924;5.328;2023-04-30T06:02:32;9.90;99.90
18541;DHT22;9400;50.924;5.328;2023-04-30T06:05:00;10.00;99.90
18541;DHT22;9400;50.924;5.328;2023-04-30T06:07:28;10.10;99.90
18541;DHT22;9400;50.924;5.328;2023-04-30T06:09:56;10.10;99.90
18541;DHT22;9400;50.924;5.328;2023-04-30T06:12:23;10.20;99.90
18541;DHT22;9400;50.924;5.328;2023-04-30T06:14:51;10.30;99.90
18541;DHT22;9400;50.924;5.328;2023-04-30T06:17:19;10.40;99.90
18541;DHT22;9400;50.924;5.328;2023-04-30T06:19:47;10.30;99.90
18541;DHT22;9400;50.924;5.328;2023-04-30T06:22:16;10.40;99.90
18541;DHT22;9400;50.924;5.328;2023-04-30T06:24:43;10.50;99.90
18541;DHT22;9400;50.924;5.328;2023-04-30T06:27:11;10.40;99.90
18541;DHT22;9400;50.924;5.328;2023-04-30T06:29:39;10.40;99.90
18541;DHT22;9400;50.924;5.328;2023-04-30T06:32:06;10.50;99.90
18541;DHT22;9400;50.924;5.328;2023-04-30T06:34:34;10.50;99.90
18541;DHT22;9400;50.924;5.328;2023-04-30T06:37:04;10.40;99.90
18541;DHT22;9400;50.924;5.328;2023-04-30T06:39:32;10.50;99.90
18541;DHT22;9400;50.924;5.328;2023-04-30T06:41:59;10.70;99.90
18541;DHT22;9400;50.924;5.328;2023-04-30T06:44:27;10.70;99.90
18541;DHT22;9400;50.924;5.328;2023-04-30T06:46:54;10.80;99.90
18541;DHT22;9400;50.924;5.328;2023-04-30T06:49:22;11.00;99.90
18541;DHT22;9400;50.924;5.328;2023-04-30T06:51:49;11.10;99.90
18541;DHT22;9400;50.924;5.328;2023-04-30T06:54:19;11.20;99.90
18541;DHT22;9400;50.924;5.328;2023-04-30T06:56:49;11.20;99.90
18541;DHT22;9400;50.924;5.328;2023-04-30T06:59:16;11.30;99.90
18541;DHT22;9400;50.924;5.328;2023-04-30T07:01:44;11.40;99.90
18541;DHT22;9400;50.924;5.328;2023-04-30T07:04:11;11.50;99.90
18541;DHT22;9400;50.924;5.328;2023-04-30T07:06:39;11.60;99.90
18541;DHT22;9400;50.924;5.328;2023-04-30T07:09:07;11.70;99.90
18541;DHT22;9400;50.924;5.328;2023-04-30T07:11:36;11.80;99.90
18541;DHT22;9400;50.924;5.328;2023-04-30T07:14:05;11.90;99.90
18541;DHT22;9400;50.924;5.328;2023-04-30T07:16:33;12.10;99.90
18541;DHT22;9400;50.924;5.328;2023-04-30T07:19:00;12.20;99.90
18541;DHT22;9400;50.924;5.328;2023-04-30T07:21:28;12.30;99.90
18541;DHT22;9400;50.924;5.328;2023-04-30T07:23:58;12.40;99.90
18541;DHT22;9400;50.924;5.328;2023-04-30T07:26:26;12.30;99.90
18541;DHT22;9400;50.924;5.328;2023-04-30T07:28:55;12.40;99.90
18541;DHT22;9400;50.924;5.328;2023-04-30T07:31:23;12.40;99.90
18541;DHT22;9400;50.924;5.328;2023-04-30T07:33:50;12.50;99.90
18541;DHT22;9400;50.924;5.328;2023-04-30T07:36:20;12.70;99.90
18541;DHT22;9400;50.924;5.328;2023-04-30T07:38:48;12.80;99.90
18541;DHT22;9400;50.924;5.328;2023-04-30T07:41:16;12.90;99.90
18541;DHT22;9400;50.924;5.328;2023-04-30T07:43:43;13.00;99.90
18541;DHT22;9400;50.924;5.328;2023-04-30T07:46:13;13.10;99.90
18541;DHT22;9400;50.924;5.328;2023-04-30T07:48:40;13.20;99.90
18541;DHT22;9400;50.924;5.328;2023-04-30T07:51:07;13.20;99.90
18541;DHT22;9400;50.924;5.328;2023-04-30T07:53:35;13.40;99.90
18541;DHT22;9400;50.924;5.328;2023-04-30T07:56:03;13.40;99.90
18541;DHT22;9400;50.924;5.328;2023-04-30T07:58:31;13.50;99.90
18541;DHT22;9400;50.924;5.328;2023-04-30T08:00:59;13.60;99.90
18541;DHT22;9400;50.924;5.328;2023-04-30T08:03:28;13.70;99.90
18541;DHT22;9400;50.924;5.328;2023-04-30T08:05:55;13.90;99.90
18541;DHT22;9400;50.924;5.328;2023-04-30T08:08:25;13.90;99.90
18541;DHT22;9400;50.924;5.328;2023-04-30T08:10:53;14.00;99.90
18541;DHT22;9400;50.924;5.328;2023-04-30T08:13:21;14.20;99.90
18541;DHT22;9400;50.924;5.328;2023-04-30T08:15:49;14.40;99.90
18541;DHT22;9400;50.924;5.328;2023-04-30T08:18:16;14.50;99.90
18541;DHT22;9400;50.924;5.328;2023-04-30T08:20:46;14.50;99.90
18541;DHT22;9400;50.924;5.328;2023-04-30T08:23:14;14.70;99.90
18541;DHT22;9400;50.924;5.328;2023-04-30T08:25:42;14.60;99.90
18541;DHT22;9400;50.924;5.328;2023-04-30T08:28:10;14.70;99.90
18541;DHT22;9400;50.924;5.328;2023-04-30T08:30:37;14.90;99.90
18541;DHT22;9400;50.924;5.328;2023-04-30T08:33:05;14.90;99.90
18541;DHT22;9400;50.924;5.328;2023-04-30T08:35:33;14.80;99.90
18541;DHT22;9400;50.924;5.328;2023-04-30T08:38:02;14.90;99.90
18541;DHT22;9400;50.924;5.328;2023-04-30T08:40:30;14.90;99.90
18541;DHT22;9400;50.924;5.328;2023-04-30T08:43:04;14.90;99.90
18541;DHT22;9400;50.924;5.328;2023-04-30T08:45:33;15.00;99.90
18541;DHT22;9400;50.924;5.328;2023-04-30T08:48:04;15.20;99.90
18541;DHT22;9400;50.924;5.328;2023-04-30T08:50:35;15.40;99.90
18541;DHT22;9400;50.924;5.328;2023-04-30T08:53:07;15.20;99.90
18541;DHT22;9400;50.924;5.328;2023-04-30T08:55:38;15.40;99.90
18541;DHT22;9400;50.924;5.328;2023-04-30T08:58:07;15.50;99.90
18541;DHT22;9400;50.924;5.328;2023-04-30T09:00:37;15.50;99.90
18541;DHT22;9400;50.924;5.328;2023-04-30T09:03:06;15.40;99.90
18541;DHT22;9400;50.924;5.328;2023-04-30T09:05:35;15.70;99.90
18541;DHT22;9400;50.924;5.328;2023-04-30T09:08:04;15.90;99.90
18541;DHT22;9400;50.924;5.328;2023-04-30T09:10:35;16.00;99.90
18541;DHT22;9400;50.924;5.328;2023-04-30T09:13:05;16.10;99.90
18541;DHT22;9400;50.924;5.328;2023-04-30T09:15:35;16.10;99.90
18541;DHT22;9400;50.924;5.328;2023-04-30T09:18:11;16.20;99.90
18541;DHT22;9400;50.924;5.328;2023-04-30T09:20:56;16.30;99.90
18541;DHT22;9400;50.924;5.328;2023-04-30T09:23:28;16.50;99.90
18541;DHT22;9400;50.924;5.328;2023-04-30T09:25:56;16.70;99.90
18541;DHT22;9400;50.924;5.328;2023-04-30T09:28:23;16.90;99.90
18541;DHT22;9400;50.924;5.328;2023-04-30T09:30:52;16.90;99.90
18541;DHT22;9400;50.924;5.328;2023-04-30T09:33:20;16.80;99.90
18541;DHT22;9400;50.924;5.328;2023-04-30T09:35:48;16.90;99.90
18541;DHT22;9400;50.924;5.328;2023-04-30T09:38:28;16.70;99.90
18541;DHT22;9400;50.924;5.328;2023-04-30T09:40:57;16.80;99.90
18541;DHT22;9400;50.924;5.328;2023-04-30T09:43:25;17.00;99.90
18541;DHT22;9400;50.924;5.328;2023-04-30T09:45:52;17.30;99.90
18541;DHT22;9400;50.924;5.328;2023-04-30T09:48:21;17.00;99.90
18541;DHT22;9400;50.924;5.328;2023-04-30T09:50:49;17.10;99.90
18541;DHT22;9400;50.924;5.328;2023-04-30T09:53:16;17.10;99.90
18541;DHT22;9400;50.924;5.328;2023-04-30T09:55:47;17.10;99.90
18541;DHT22;9400;50.924;5.328;2023-04-30T09:58:17;17.40;99.90
18541;DHT22;9400;50.924;5.328;2023-04-30T10:00:46;17.40;99.90
18541;DHT22;9400;50.924;5.328;2023-04-30T10:03:15;17.60;99.90
18541;DHT22;9400;50.924;5.328;2023-04-30T10:05:44;17.60;99.90
18541;DHT22;9400;50.924;5.328;2023-04-30T10:08:17;17.60;99.90
18541;DHT22;9400;50.924;5.328;2023-04-30T10:10:50;17.60;99.90
18541;DHT22;9400;50.924;5.328;2023-04-30T10:13:21;17.70;99.90
18541;DHT22;9400;50.924;5.328;2023-04-30T10:15:54;17.70;99.90
18541;DHT22;9400;50.924;5.328;2023-04-30T10:18:30;17.60;99.90
18541;DHT22;9400;50.924;5.328;2023-04-30T10:21:02;18.00;99.90
18541;DHT22;9400;50.924;5.328;2023-04-30T10:23:30;18.20;99.90
18541;DHT22;9400;50.924;5.328;2023-04-30T10:26:00;18.10;99.90
18541;DHT22;9400;50.924;5.328;2023-04-30T10:28:28;18.10;99.90
18541;DHT22;9400;50.924;5.328;2023-04-30T10:30:58;18.10;99.90
18541;DHT22;9400;50.924;5.328;2023-04-30T10:33:33;18.10;99.90
18541;DHT22;9400;50.924;5.328;2023-04-30T10:36:06;18.30;99.90
18541;DHT22;9400;50.924;5.328;2023-04-30T10:38:40;18.40;99.90
18541;DHT22;9400;50.924;5.328;2023-04-30T10:41:09;18.30;99.90
18541;DHT22;9400;50.924;5.328;2023-04-30T10:43:55;18.40;99.90
18541;DHT22;9400;50.924;5.328;2023-04-30T10:46:25;18.80;99.90
18541;DHT22;9400;50.924;5.328;2023-04-30T10:48:53;18.90;99.90
18541;DHT22;9400;50.924;5.328;2023-04-30T10:51:21;18.90;99.90
18541;DHT22;9400;50.924;5.328;2023-04-30T10:53:49;19.30;99.90
18541;DHT22;9400;50.924;5.328;2023-04-30T10:56:35;19.70;99.90
18541;DHT22;9400;50.924;5.328;2023-04-30T10:59:04;19.60;99.90
18541;DHT22;9400;50.924;5.328;2023-04-30T11:01:55;19.60;99.90
18541;DHT22;9400;50.924;5.328;2023-04-30T11:04:23;19.50;99.90
18541;DHT22;9400;50.924;5.328;2023-04-30T11:07:00;19.60;99.90
18541;DHT22;9400;50.924;5.328;2023-04-30T11:09:36;19.70;99.90
18541;DHT22;9400;50.924;5.328;2023-04-30T11:12:10;19.60;99.90
18541;DHT22;9400;50.924;5.328;2023-04-30T11:14:44;19.70;99.90
18541;DHT22;9400;50.924;5.328;2023-04-30T11:17:13;19.60;99.90
18541;DHT22;9400;50.924;5.328;2023-04-30T11:19:49;19.50;99.90
18541;DHT22;9400;50.924;5.328;2023-04-30T11:22:20;19.40;99.90
18541;DHT22;9400;50.924;5.328;2023-04-30T11:24:53;19.80;99.90
18541;DHT22;9400;50.924;5.328;2023-04-30T11:27:22;19.80;99.90
18541;DHT22;9400;50.924;5.328;2023-04-30T11:29:53;19.90;99.90
18541;DHT22;9400;50.924;5.328;2023-04-30T11:32:23;20.20;99.90
18541;DHT22;9400;50.924;5.328;2023-04-30T11:34:53;20.60;99.90
18541;DHT22;9400;50.924;5.328;2023-04-30T11:37:24;20.20;99.90
18541;DHT22;9400;50.924;5.328;2023-04-30T11:39:57;20.10;99.90
18541;DHT22;9400;50.924;5.328;2023-04-30T11:42:26;20.50;99.90
18541;DHT22;9400;50.924;5.328;2023-04-30T11:45:02;20.70;99.90
18541;DHT22;9400;50.924;5.328;2023-04-30T11:47:41;20.60;99.90
18541;DHT22;9400;50.924;5.328;2023-04-30T11:50:10;20.60;99.90
18541;DHT22;9400;50.924;5.328;2023-04-30T11:52:38;20.70;99.90
18541;DHT22;9400;50.924;5.328;2023-04-30T11:55:35;20.80;99.90
18541;DHT22;9400;50.924;5.328;2023-04-30T11:58:03;21.50;99.90
18541;DHT22;9400;50.924;5.328;2023-04-30T12:00:32;21.70;99.90
18541;DHT22;9400;50.924;5.328;2023-04-30T12:03:00;21.90;99.90
18541;DHT22;9400;50.924;5.328;2023-04-30T12:05:29;22.30;99.90
18541;DHT22;9400;50.924;5.328;2023-04-30T12:07:59;21.90;99.90
18541;DHT22;9400;50.924;5.328;2023-04-30T12:10:30;21.50;99.90
18541;DHT22;9400;50.924;5.328;2023-04-30T12:12:58;22.60;99.90
18541;DHT22;9400;50.924;5.328;2023-04-30T12:15:26;23.10;99.90
18541;DHT22;9400;50.924;5.328;2023-04-30T12:17:56;23.20;99.90
18541;DHT22;9400;50.924;5.328;2023-04-30T12:20:26;23.20;99.90
18541;DHT22;9400;50.924;5.328;2023-04-30T12:22:55;23.20;99.90
18541;DHT22;9400;50.924;5.328;2023-04-30T12:25:23;23.70;99.90
18541;DHT22;9400;50.924;5.328;2023-04-30T12:27:52;23.70;99.90
18541;DHT22;9400;50.924;5.328;2023-04-30T12:30:20;23.60;99.90
18541;DHT22;9400;50.924;5.328;2023-04-30T12:32:50;23.40;99.90
18541;DHT22;9400;50.924;5.328;2023-04-30T12:35:20;23.10;99.90
18541;DHT22;9400;50.924;5.328;2023-04-30T12:37:51;23.30;99.90
18541;DHT22;9400;50.924;5.328;2023-04-30T12:40:19;23.10;99.90
18541;DHT22;9400;50.924;5.328;2023-04-30T12:42:47;23.50;99.90
18541;DHT22;9400;50.924;5.328;2023-04-30T12:45:46;23.50;99.90
18541;DHT22;9400;50.924;5.328;2023-04-30T12:48:16;23.80;99.90
18541;DHT22;9400;50.924;5.328;2023-04-30T12:50:52;23.40;99.90
18541;DHT22;9400;50.924;5.328;2023-04-30T12:53:20;23.20;99.90
18541;DHT22;9400;50.924;5.328;2023-04-30T12:56:08;23.80;99.90
18541;DHT22;9400;50.924;5.328;2023-04-30T12:58:37;23.50;99.90
18541;DHT22;9400;50.924;5.328;2023-04-30T13:01:10;23.80;99.90
18541;DHT22;9400;50.924;5.328;2023-04-30T13:03:38;24.10;99.90
18541;DHT22;9400;50.924;5.328;2023-04-30T13:06:07;24.00;99.90
18541;DHT22;9400;50.924;5.328;2023-04-30T13:08:35;24.40;99.90
18541;DHT22;9400;50.924;5.328;2023-04-30T13:11:03;24.50;99.90
18541;DHT22;9400;50.924;5.328;2023-04-30T13:13:31;25.30;99.90
18541;DHT22;9400;50.924;5.328;2023-04-30T13:15:58;25.00;99.90
18541;DHT22;9400;50.924;5.328;2023-04-30T13:18:26;25.60;99.90
18541;DHT22;9400;50.924;5.328;2023-04-30T13:20:53;25.60;99.90
18541;DHT22;9400;50.924;5.328;2023-04-30T13:23:22;25.60;99.90
18541;DHT22;9400;50.924;5.328;2023-04-30T13:25:50;25.80;99.90
18541;DHT22;9400;50.924;5.328;2023-04-30T13:28:17;27.10;99.90
18541;DHT22;9400;50.924;5.328;2023-04-30T13:30:45;26.40;99.90
18541;DHT22;9400;50.924;5.328;2023-04-30T13:33:13;26.40;99.90
18541;DHT22;9400;50.924;5.328;2023-04-30T13:35:41;26.60;99.90
18541;DHT22;9400;50.924;5.328;2023-04-30T13:38:09;27.50;99.90
18541;DHT22;9400;50.924;5.328;2023-04-30T13:40:38;27.50;99.90
18541;DHT22;9400;50.924;5.328;2023-04-30T13:46:26;26.80;99.90
18541;DHT22;9400;50.924;5.328;2023-04-30T13:48:54;26.70;99.90
18541;DHT22;9400;50.924;5.328;2023-04-30T13:51:21;26.70;99.90
18541;DHT22;9400;50.924;5.328;2023-04-30T13:53:49;27.20;99.90
18541;DHT22;9400;50.924;5.328;2023-04-30T13:56:18;28.90;99.90
18541;DHT22;9400;50.924;5.328;2023-04-30T13:58:46;27.70;99.90
18541;DHT22;9400;50.924;5.328;2023-04-30T14:01:16;27.60;99.90
18541;DHT22;9400;50.924;5.328;2023-04-30T14:03:44;28.40;99.90
18541;DHT22;9400;50.924;5.328;2023-04-30T14:06:13;28.70;99.90
18541;DHT22;9400;50.924;5.328;2023-04-30T14:08:41;29.10;99.90
18541;DHT22;9400;50.924;5.328;2023-04-30T14:11:08;27.60;99.90
18541;DHT22;9400;50.924;5.328;2023-04-30T14:13:38;26.50;99.90
18541;DHT22;9400;50.924;5.328;2023-04-30T14:16:07;26.80;99.90
18541;DHT22;9400;50.924;5.328;2023-04-30T14:18:34;28.00;99.90
18541;DHT22;9400;50.924;5.328;2023-04-30T14:21:02;27.50;99.90
18541;DHT22;9400;50.924;5.328;2023-04-30T14:23:31;27.80;99.90
18541;DHT22;9400;50.924;5.328;2023-04-30T14:25:59;28.10;99.90
18541;DHT22;9400;50.924;5.328;2023-04-30T14:28:27;28.10;99.90
18541;DHT22;9400;50.924;5.328;2023-04-30T14:30:56;29.00;99.90
18541;DHT22;9400;50.924;5.328;2023-04-30T14:33:24;29.10;99.90
18541;DHT22;9400;50.924;5.328;2023-04-30T14:35:52;28.30;99.90
18541;DHT22;9400;50.924;5.328;2023-04-30T14:38:19;28.70;99.90
18541;DHT22;9400;50.924;5.328;2023-04-30T14:40:47;27.50;99.90
18541;DHT22;9400;50.924;5.328;2023-04-30T14:43:14;27.00;99.90
18541;DHT22;9400;50.924;5.328;2023-04-30T14:45:42;26.40;99.90
18541;DHT22;9400;50.924;5.328;2023-04-30T14:48:12;25.70;99.90
18541;DHT22;9400;50.924;5.328;2023-04-30T14:50:39;26.50;99.90
18541;DHT22;9400;50.924;5.328;2023-04-30T14:53:08;27.20;99.90
18541;DHT22;9400;50.924;5.328;2023-04-30T14:55:36;27.50;99.90
18541;DHT22;9400;50.924;5.328;2023-04-30T14:58:03;28.30;99.90
18541;DHT22;9400;50.924;5.328;2023-04-30T15:00:31;28.80;99.90
18541;DHT22;9400;50.924;5.328;2023-04-30T15:02:59;27.60;99.90
18541;DHT22;9400;50.924;5.328;2023-04-30T15:05:28;27.10;99.90
18541;DHT22;9400;50.924;5.328;2023-04-30T15:07:55;26.90;99.90
18541;DHT22;9400;50.924;5.328;2023-04-30T15:10:23;28.10;99.90
18541;DHT22;9400;50.924;5.328;2023-04-30T15:12:50;27.40;99.90
18541;DHT22;9400;50.924;5.328;2023-04-30T15:15:18;27.50;99.90
18541;DHT22;9400;50.924;5.328;2023-04-30T15:17:53;27.60;99.90
18541;DHT22;9400;50.924;5.328;2023-04-30T15:20:21;27.80;99.90
18541;DHT22;9400;50.924;5.328;2023-04-30T15:22:50;28.10;99.90
18541;DHT22;9400;50.924;5.328;2023-04-30T15:25:19;28.00;99.90
18541;DHT22;9400;50.924;5.328;2023-04-30T15:27:49;28.50;99.90
18541;DHT22;9400;50.924;5.328;2023-04-30T15:30:17;28.50;99.90
18541;DHT22;9400;50.924;5.328;2023-04-30T15:32:45;27.70;99.90
18541;DHT22;9400;50.924;5.328;2023-04-30T15:35:13;26.80;99.90
18541;DHT22;9400;50.924;5.328;2023-04-30T15:37:41;27.20;99.90
18541;DHT22;9400;50.924;5.328;2023-04-30T15:40:12;27.00;99.90
18541;DHT22;9400;50.924;5.328;2023-04-30T15:42:40;26.90;99.90
18541;DHT22;9400;50.924;5.328;2023-04-30T15:45:09;26.50;99.90
18541;DHT22;9400;50.924;5.328;2023-04-30T15:47:37;26.00;99.90
18541;DHT22;9400;50.924;5.328;2023-04-30T15:50:06;26.90;99.90
18541;DHT22;9400;50.924;5.328;2023-04-30T15:52:33;26.60;99.90
18541;DHT22;9400;50.924;5.328;2023-04-30T15:55:01;26.50;99.90
18541;DHT22;9400;50.924;5.328;2023-04-30T15:57:31;26.50;99.90
18541;DHT22;9400;50.924;5.328;2023-04-30T15:59:59;26.50;99.90
18541;DHT22;9400;50.924;5.328;2023-04-30T16:02:27;27.20;99.90
18541;DHT22;9400;50.924;5.328;2023-04-30T16:04:55;27.80;99.90
18541;DHT22;9400;50.924;5.328;2023-04-30T16:07:23;27.10;99.90